Flight Track Log - Related Links

Times and Time Zones

All times are in EDT time to prevent confusion due to time zone crossing. See the EJA831 flight status page for this flight to view local times or setup timezone preferences in your user account.

Time Position Orientation Groundspeed Altitude Reporting Facility
EDT Latitude Longitude Course Direction KTS MPH feet Rate Location/Type
Sat 12:52:28 PM 37.9833 -121.3000 332° Northwest 240 276 5,000  Level Northern Cal TRACON
Sat 12:53:22 PM 38.0333 -121.3500 322° Northwest 273 314 7,500 2,970 Climbing Northern Cal TRACON
Sat 12:54:09 PM 38.0647 -121.4011 308° West 265 305 10,000 3,303 Climbing Oakland Center
Sat 12:55:11 PM 38.1139 -121.4794 309° West 282 325 13,500 3,415 Climbing Oakland Center
Sat 12:56:12 PM 38.2053 -121.5056 347° North 293 337 17,000 2,902 Climbing Oakland Center
Sat 12:57:13 PM 38.2878 -121.5225 351° North 296 341 19,400 2,244 Climbing Oakland Center
Sat 12:58:15 PM 38.3733 -121.5386 352° North 306 352 21,600 2,195 Climbing Oakland Center
Sat 12:59:16 PM 38.4714 -121.5600 350° North 327 376 23,900 2,000 Climbing Oakland Center
Sat 01:00:18 PM 38.5619 -121.5908 345° North 329 379 25,700 1,707 Climbing Oakland Center
Sat 01:01:19 PM 38.6564 -121.6206 346° North 341 392 27,400 1,122 Climbing Oakland Center
Sat 01:02:21 PM 38.7531 -121.6533 345° North 353 406 28,000 293 Climbing Oakland Center
Sat 01:03:22 PM 38.8542 -121.7067 338° Northwest 384 442 28,000 293 Level Oakland Center
Sat 01:04:24 PM 38.9550 -121.7575 339° North 386 444 28,600 780 Climbing Oakland Center
Sat 01:05:25 PM 39.0544 -121.8089 338° Northwest 386 444 29,600 683 Climbing Oakland Center
Sat 01:06:27 PM 39.1550 -121.8625 338° Northwest 386 444 30,000 195 Climbing Oakland Center
Sat 01:07:28 PM 39.2581 -121.9153 338° Northwest 395 455 30,000  Level Oakland Center
Sat 01:08:30 PM 39.3597 -121.9689 338° Northwest 395 455 30,000  Level Oakland Center
Sat 01:09:31 PM 39.4625 -122.0233 338° Northwest 396 456 30,000 585 Level Oakland Center
Sat 01:10:33 PM 39.5681 -122.0789 338° Northwest 396 456 31,200 1,317 Climbing Oakland Center
Sat 01:11:34 PM 39.6850 -122.1406 338° Northwest 384 442 32,700 1,317 Climbing Oakland Center
Sat 01:12:36 PM 39.7825 -122.1922 338° Northwest 381 438 33,900 927 Climbing Oakland Center
Sat 01:13:37 PM 39.8814 -122.2458 337° Northwest 386 444 34,600 829 Climbing Oakland Center
Sat 01:14:39 PM 39.9794 -122.2978 338° Northwest 385 443 35,600 677 Climbing Oakland Center
Sat 01:15:41 PM 40.0792 -122.3550 336° Northwest 386 444 36,000 195 Climbing Oakland Center
Sat 01:16:42 PM 40.1892 -122.4125 338° Northwest 399 459 36,000  Level Oakland Center
Sat 01:17:44 PM 40.2919 -122.4669 338° Northwest 397 457 36,000  Level Oakland Center
Sat 01:18:45 PM 40.3919 -122.5206 338° Northwest 390 449 36,000  Level Oakland Center
Sat 01:19:47 PM 40.4925 -122.5758 337° Northwest 390 449 36,000  Level Oakland Center
Sat 01:20:49 PM 40.5925 -122.6297 338° Northwest 390 449 36,000  Level Oakland Center
Sat 01:21:50 PM 40.6931 -122.6861 337° Northwest 391 450 36,000  Level Oakland Center
Sat 01:22:52 PM 40.8147 -122.7525 338° Northwest 393 452 36,000  Level Oakland Center
Sat 01:23:53 PM 40.9169 -122.8081 338° Northwest 394 453 36,000  Level Oakland Center
Sat 01:24:55 PM 41.0186 -122.8644 337° Northwest 394 453 36,000  Level Oakland Center
Sat 01:25:57 PM 41.1197 -122.9211 337° Northwest 394 453 36,000  Level Oakland Center
Sat 01:26:58 PM 41.2211 -122.9781 337° Northwest 394 453 36,000  Level Oakland Center
Sat 01:28:00 PM 41.3239 -123.0339 338° Northwest 396 456 36,000  Level Oakland Center
Sat 01:29:01 PM 41.4353 -123.0969 337° Northwest 393 452 36,000  Level Oakland Center
Sat 01:30:03 PM 41.5342 -123.1522 337° Northwest 386 444 36,000  Level Oakland Center
Sat 01:31:05 PM 41.6322 -123.2075 337° Northwest 384 442 36,000  Level Oakland Center
Sat 01:32:06 PM 41.7317 -123.2642 337° Northwest 385 443 36,000  Level Oakland Center
Sat 01:33:08 PM 41.8278 -123.3192 337° Northwest 386 444 36,000  Level Oakland Center
Sat 01:34:09 PM 41.9467 -123.3878 337° Northwest 388 447 36,000 -488 Level Oakland Center
Sat 01:35:11 PM 42.0467 -123.4447 337° Northwest 389 448 35,000 -1,065 Descending Oakland Center
Sat 01:36:13 PM 42.1311 -123.4925 337° Northwest 389 448 33,800 -1,659 Descending Oakland Center
Sat 01:37:14 PM 42.2533 -123.5619 337° Northwest 392 451 31,600 -2,357 Descending Oakland Center
Sat 01:38:33 PM 42.3739 -123.6292 338° Northwest 392 451 28,300 -2,596 Descending Seattle Center
Sat 01:39:35 PM 42.4731 -123.6892 336° Northwest 392 451 25,500 -2,732 Descending Seattle Center
Sat 01:40:36 PM 42.5717 -123.7461 337° Northwest 389 448 22,700 -2,852 Descending Seattle Center
Sat 01:41:37 PM 42.6647 -123.7997 337° Northwest 368 423 19,700 -3,197 Descending Seattle Center
Sat 01:42:38 PM 42.7722 -123.8667 335° Northwest 346 398 16,200 -3,197 Descending Seattle Center
Sat 01:43:39 PM 42.8553 -123.9178 336° Northwest 329 379 13,200 -2,508 Descending Seattle Center
Sat 01:44:40 PM 42.9183 -123.9719 328° Northwest 285 328 11,100 -2,262 Descending Seattle Center
Sat 01:45:41 PM 42.9861 -124.0292 328° Northwest 279 321 8,600 -2,213 Descending Seattle Center
Sat 01:46:42 PM 43.0442 -124.0839 325° Northwest 261 300 6,600 -1,869 Descending Seattle Center
Sat 01:47:43 PM 43.0997 -124.1367 325° Northwest 254 292 4,800 -1,317 Descending Seattle Center
Sat 01:48:45 PM 43.1469 -124.1856 323° Northwest 236 272 3,900 -683 Descending Seattle Center
Sat 01:49:46 PM 43.1569 -124.2561 281° West 217 250 3,400 -639 Descending Seattle Center
Sat 01:50:47 PM 43.1794 -124.3411 290° West 213 245 2,600 -787 Descending Seattle Center
Sat 01:52:00 PM 43.2936 -124.2960 352° North  Level Estimated
Sat 01:59:00 PM 43.4167 -124.2333 352° North  Level FlightAware Approximate
Sat 02:00:00 PM 43.4169 -124.2470 352° North  Level Estimated
Sat 02:01:00 PM 43.4169 -124.2470 352° North  Level Estimated
Sat 02:02:00 PM 43.4169 -124.2470 352° North  Level Estimated
Sat 02:03:00 PM 43.4169 -124.2470 352° North  Level Estimated
Sat 02:04:00 PM 43.4169 -124.2470 352° North  Level Estimated
Sat 02:05:00 PM 43.4169 -124.2470 352° North  Level Estimated
Sat 02:06:00 PM 43.4169 -124.2470 352° North  Level Estimated

Login

Don't have an account? Register now (free) for customized features, flight alerts, and more!